createdAt,value
2022-11-05T00:00:38.781Z,21.20
2022-11-05T00:03:29.941Z,22.30
2022-11-05T00:06:16.633Z,23.30
2022-11-05T00:09:02.898Z,21.40
2022-11-05T00:11:49.571Z,32.10
2022-11-05T00:14:35.969Z,33.10
2022-11-05T00:17:03.702Z,41.20
2022-11-05T00:19:31.477Z,37.20
2022-11-05T00:22:17.811Z,33.80
2022-11-05T00:25:04.229Z,37.50
2022-11-05T00:27:34.248Z,35.80
2022-11-05T00:30:06.002Z,28.20
2022-11-05T00:32:33.959Z,33.00
2022-11-05T00:35:01.743Z,36.00
2022-11-05T00:37:29.907Z,25.60
2022-11-05T00:39:57.719Z,35.00
2022-11-05T00:42:43.998Z,34.80
2022-11-05T00:45:11.988Z,27.50
2022-11-05T00:47:59.206Z,30.20
2022-11-05T00:50:27.706Z,27.10
2022-11-05T00:52:59.686Z,30.90
2022-11-05T00:55:35.627Z,24.50
2022-11-05T00:58:13.811Z,27.60
2022-11-05T01:00:48.518Z,24.20
2022-11-05T01:03:18.831Z,28.70
2022-11-05T01:05:53.458Z,24.90
2022-11-05T01:08:24.930Z,30.10
2022-11-05T01:13:29.892Z,29.50
2022-11-05T01:15:58.129Z,29.50
2022-11-05T01:18:25.974Z,25.20
2022-11-05T01:20:53.725Z,28.30
2022-11-05T01:23:21.792Z,28.00
2022-11-05T01:25:50.026Z,25.90
2022-11-05T01:28:17.792Z,25.80
2022-11-05T01:30:45.598Z,26.20
2022-11-05T01:33:13.629Z,30.30
2022-11-05T01:35:41.697Z,28.00
2022-11-05T01:38:09.418Z,26.80
2022-11-05T01:40:37.173Z,30.90
2022-11-05T01:43:16.049Z,23.60
2022-11-05T01:45:51.223Z,22.00
2022-11-05T01:48:32.089Z,25.60
2022-11-05T01:51:08.721Z,27.00
2022-11-05T01:54:04.204Z,26.40
2022-11-05T01:56:38.679Z,27.40
2022-11-05T01:59:23.112Z,28.20
2022-11-05T02:01:52.022Z,25.50
2022-11-05T02:04:39.364Z,28.20
2022-11-05T02:07:09.550Z,31.40
2022-11-05T02:10:06.442Z,26.20
2022-11-05T02:12:37.529Z,33.60
2022-11-05T02:15:06.881Z,26.60
2022-11-05T02:17:55.334Z,26.90
2022-11-05T02:20:35.841Z,26.80
2022-11-05T02:23:31.510Z,29.20
2022-11-05T02:26:52.097Z,27.30
2022-11-05T02:30:00.945Z,28.00
2022-11-05T02:33:00.089Z,27.10
2022-11-05T02:35:45.111Z,28.10
2022-11-05T02:38:40.571Z,28.20
2022-11-05T02:41:24.070Z,30.10
2022-11-05T02:44:25.486Z,29.60
2022-11-05T02:47:18.151Z,27.70
2022-11-05T02:50:29.164Z,28.90
2022-11-05T02:53:02.823Z,23.90
2022-11-05T02:55:52.472Z,29.10
2022-11-05T02:58:20.226Z,28.20
2022-11-05T03:00:55.162Z,27.60
2022-11-05T03:03:32.158Z,28.90
2022-11-05T03:06:40.339Z,28.70
2022-11-05T03:09:45.121Z,27.10
2022-11-05T03:12:56.987Z,29.90
2022-11-05T03:16:02.347Z,28.20
2022-11-05T03:18:54.671Z,31.30
2022-11-05T03:21:27.407Z,27.10
2022-11-05T03:24:13.792Z,26.50
2022-11-05T03:26:54.458Z,28.50
2022-11-05T03:29:57.239Z,29.20
2022-11-05T03:32:29.207Z,29.10
2022-11-05T03:35:04.226Z,27.20
2022-11-05T03:37:37.452Z,25.10
2022-11-05T03:40:09.846Z,28.30
2022-11-05T03:42:43.712Z,28.90
2022-11-05T03:45:24.721Z,26.20
2022-11-05T03:47:56.770Z,24.50
2022-11-05T03:50:40.968Z,27.20
2022-11-05T03:53:43.528Z,27.70
2022-11-05T03:56:22.879Z,30.80
2022-11-05T03:58:56.137Z,27.30
2022-11-05T04:01:27.939Z,25.90
2022-11-05T04:03:55.893Z,24.20
2022-11-05T04:06:42.706Z,27.70
2022-11-05T04:09:29.433Z,31.50
2022-11-05T04:12:15.683Z,31.20
2022-11-05T04:14:43.477Z,28.90
2022-11-05T04:17:11.400Z,28.50
2022-11-05T04:20:01.716Z,26.00
2022-11-05T04:22:54.428Z,25.20
2022-11-05T04:25:22.902Z,29.20
2022-11-05T04:27:51.529Z,28.20
2022-11-05T04:30:20.160Z,26.20
2022-11-05T04:33:05.754Z,29.00
2022-11-05T04:35:48.722Z,29.80
2022-11-05T04:38:19.745Z,25.30
2022-11-05T04:40:48.303Z,25.90
2022-11-05T04:43:19.341Z,29.00
2022-11-05T04:45:47.570Z,29.20
2022-11-05T04:48:15.333Z,26.10
2022-11-05T04:50:43.040Z,23.80
2022-11-05T04:53:11.079Z,22.50
2022-11-05T04:55:39.043Z,25.80
2022-11-05T04:58:07.291Z,24.00
2022-11-05T05:00:35.144Z,24.10
2022-11-05T05:03:02.905Z,25.30
2022-11-05T05:05:30.651Z,18.80
2022-11-05T05:08:03.160Z,22.50
2022-11-05T05:10:32.543Z,21.10
2022-11-05T05:13:00.268Z,21.10
2022-11-05T05:15:27.995Z,23.00
2022-11-05T05:17:56.303Z,25.00
2022-11-05T05:20:42.851Z,23.20
2022-11-05T05:23:11.070Z,19.90
2022-11-05T05:25:39.021Z,20.10
2022-11-05T05:28:06.784Z,20.90
2022-11-05T05:30:34.584Z,20.90
2022-11-05T05:33:04.051Z,22.50
2022-11-05T05:35:31.851Z,21.00
2022-11-05T05:37:59.591Z,23.50
2022-11-05T05:40:27.579Z,18.50
2022-11-05T05:42:55.930Z,21.30
2022-11-05T05:45:23.697Z,15.00
2022-11-05T05:47:51.542Z,15.00
2022-11-05T05:50:19.273Z,17.00
2022-11-05T05:52:53.591Z,15.70
2022-11-05T05:55:21.460Z,15.60
2022-11-05T05:57:49.347Z,12.10
2022-11-05T06:00:17.490Z,18.30
2022-11-05T06:02:45.447Z,16.90
2022-11-05T06:05:13.491Z,16.30
2022-11-05T06:07:41.303Z,14.30
2022-11-05T06:10:09.412Z,16.10
2022-11-05T06:12:37.206Z,13.80
2022-11-05T06:15:05.754Z,12.40
2022-11-05T06:17:33.948Z,15.30
2022-11-05T06:20:01.872Z,15.40
2022-11-05T06:22:30.165Z,14.40
2022-11-05T06:24:57.925Z,12.90
2022-11-05T06:27:25.750Z,12.30
2022-11-05T06:29:53.564Z,13.40
2022-11-05T06:32:21.402Z,10.90
2022-11-05T06:34:49.243Z,11.90
2022-11-05T06:37:16.975Z,16.80
2022-11-05T06:39:44.763Z,14.30
2022-11-05T06:42:18.472Z,16.10
2022-11-05T06:44:47.171Z,14.30
2022-11-05T06:47:14.993Z,13.40
2022-11-05T06:49:42.704Z,13.30
2022-11-05T06:52:11.036Z,10.80
2022-11-05T06:54:39.880Z,11.30
2022-11-05T06:57:12.651Z,11.00
2022-11-05T06:59:40.938Z,14.40
2022-11-05T07:02:13.356Z,11.40
2022-11-05T07:04:41.217Z,11.50
2022-11-05T07:07:09.372Z,13.60
2022-11-05T07:09:40.503Z,10.10
2022-11-05T07:12:08.633Z,12.70
2022-11-05T07:14:36.667Z,12.80
2022-11-05T07:17:04.457Z,17.30
2022-11-05T07:19:32.226Z,10.70
2022-11-05T07:21:59.963Z,12.90
2022-11-05T07:24:27.759Z,12.50
2022-11-05T07:26:55.525Z,18.70
2022-11-05T07:29:23.273Z,19.70
2022-11-05T07:31:51.133Z,19.60
2022-11-05T07:34:18.973Z,29.00
2022-11-05T07:36:46.714Z,24.90
2022-11-05T07:39:14.447Z,23.10
2022-11-05T07:41:42.185Z,22.30
2022-11-05T07:44:09.920Z,25.80
2022-11-05T07:46:37.710Z,17.60
2022-11-05T07:49:05.450Z,18.70
2022-11-05T07:51:33.436Z,12.80
2022-11-05T07:54:01.347Z,15.10
2022-11-05T07:56:29.116Z,19.90
2022-11-05T07:58:56.921Z,10.20
2022-11-05T08:01:25.059Z,11.70
2022-11-05T08:03:53.026Z,14.70
2022-11-05T08:06:20.864Z,14.10
2022-11-05T08:08:48.598Z,12.10
2022-11-05T08:11:16.430Z,16.50
2022-11-05T08:13:44.250Z,14.40
2022-11-05T08:16:12.040Z,14.80
2022-11-05T08:18:40.097Z,13.10
2022-11-05T08:21:09.054Z,11.90
2022-11-05T08:23:38.668Z,13.00
2022-11-05T08:26:06.414Z,12.70
2022-11-05T08:28:34.157Z,17.60
2022-11-05T08:31:01.965Z,13.70
2022-11-05T08:33:31.521Z,17.90
2022-11-05T08:36:03.957Z,13.50
2022-11-05T08:38:32.080Z,16.60
2022-11-05T08:41:00.870Z,21.80
2022-11-05T08:43:28.755Z,12.60
2022-11-05T08:45:56.558Z,17.20
2022-11-05T08:48:24.502Z,15.00
2022-11-05T08:50:52.409Z,15.30
2022-11-05T08:53:20.510Z,12.20
2022-11-05T08:55:50.139Z,16.60
2022-11-05T08:58:20.147Z,13.80
2022-11-05T09:00:50.118Z,12.40
2022-11-05T09:03:18.836Z,16.20
2022-11-05T09:05:46.853Z,16.70
2022-11-05T09:08:18.929Z,14.70
2022-11-05T09:10:48.075Z,14.10
2022-11-05T09:13:19.246Z,12.80
2022-11-05T09:15:50.204Z,13.00
2022-11-05T09:18:20.047Z,14.50
2022-11-05T09:20:48.383Z,16.90
2022-11-05T09:23:16.334Z,18.70
2022-11-05T09:25:45.005Z,14.90
2022-11-05T09:28:20.343Z,14.00
2022-11-05T09:30:51.904Z,17.20
2022-11-05T09:35:50.199Z,10.00
2022-11-05T09:38:18.349Z,12.00
2022-11-05T09:41:03.827Z,16.70
2022-11-05T09:43:38.955Z,12.40
2022-11-05T09:46:24.012Z,12.70
2022-11-05T09:49:05.063Z,17.30
2022-11-05T09:51:36.086Z,17.20
2022-11-05T09:54:04.169Z,14.40
2022-11-05T09:56:40.384Z,12.80
2022-11-05T09:59:32.703Z,11.60
2022-11-05T10:02:17.108Z,14.40
2022-11-05T10:04:50.572Z,17.20
2022-11-05T10:07:23.727Z,12.70
2022-11-05T10:09:57.674Z,24.60
2022-11-05T10:12:50.108Z,15.30
2022-11-05T10:15:48.664Z,15.10
2022-11-05T10:18:47.510Z,13.60
2022-11-05T10:21:32.242Z,10.20
2022-11-05T10:24:20.836Z,13.90
2022-11-05T10:26:53.834Z,37.50
2022-11-05T10:29:32.506Z,14.60
2022-11-05T10:32:05.610Z,13.70
2022-11-05T10:34:38.645Z,12.50
2022-11-05T10:37:06.550Z,14.50
2022-11-05T10:39:35.030Z,12.70
2022-11-05T10:42:44.577Z,9.00
2022-11-05T10:45:36.904Z,10.80
2022-11-05T10:48:20.529Z,12.70
2022-11-05T10:50:48.673Z,11.20
2022-11-05T10:53:26.814Z,13.90
2022-11-05T10:55:54.980Z,10.70
2022-11-05T10:58:31.768Z,12.30
2022-11-05T11:00:59.575Z,11.30
2022-11-05T11:03:39.469Z,13.10
2022-11-05T11:06:26.928Z,14.50
2022-11-05T11:09:02.723Z,13.90
2022-11-05T11:11:39.186Z,14.20
2022-11-05T11:14:22.387Z,18.30
2022-11-05T11:16:53.395Z,18.20
2022-11-05T11:19:26.174Z,18.80
2022-11-05T11:22:05.819Z,26.40
2022-11-05T11:24:45.194Z,14.70
2022-11-05T11:27:19.524Z,13.30
2022-11-05T11:29:55.261Z,11.10
2022-11-05T11:32:32.547Z,13.40
2022-11-05T11:35:01.202Z,14.40
2022-11-05T11:37:35.028Z,11.20
2022-11-05T11:40:14.590Z,12.50
2022-11-05T11:42:50.999Z,13.80
2022-11-05T11:45:31.725Z,15.00
2022-11-05T11:48:05.909Z,13.30
2022-11-05T11:50:47.210Z,18.10
2022-11-05T11:53:21.448Z,15.40
2022-11-05T11:55:55.442Z,16.90
2022-11-05T11:58:36.833Z,9.10
2022-11-05T12:01:23.088Z,13.50
2022-11-05T12:04:25.793Z,10.60
2022-11-05T12:07:44.274Z,14.10
2022-11-05T12:10:52.650Z,8.20
2022-11-05T12:13:23.630Z,8.00
2022-11-05T12:16:18.267Z,18.90
2022-11-05T12:19:16.363Z,10.00
2022-11-05T12:22:04.613Z,10.90
2022-11-05T12:24:43.313Z,12.30
2022-11-05T12:27:38.799Z,11.50
2022-11-05T12:30:19.819Z,10.30
2022-11-05T12:33:17.468Z,16.80
2022-11-05T12:36:27.152Z,10.80
2022-11-05T12:39:44.415Z,14.00
2022-11-05T12:42:45.421Z,11.90
2022-11-05T12:45:41.269Z,15.30
2022-11-05T12:48:30.281Z,10.60
2022-11-05T12:51:08.488Z,15.40
2022-11-05T12:53:48.128Z,13.30
2022-11-05T12:56:31.099Z,17.70
2022-11-05T12:59:28.437Z,12.70
2022-11-05T13:02:29.894Z,19.40
2022-11-05T13:05:13.560Z,12.10
2022-11-05T13:08:17.762Z,13.40
2022-11-05T13:10:52.004Z,13.70
2022-11-05T13:13:38.544Z,13.60
2022-11-05T13:16:19.783Z,18.60
2022-11-05T13:18:56.477Z,9.70
2022-11-05T13:21:29.654Z,12.20
2022-11-05T13:24:07.779Z,9.40
2022-11-05T13:26:47.220Z,14.50
2022-11-05T13:29:27.038Z,11.80
2022-11-05T13:32:03.328Z,16.40
2022-11-05T13:34:37.301Z,14.30
2022-11-05T13:37:27.121Z,15.30
2022-11-05T13:40:06.643Z,13.40
2022-11-05T13:42:57.640Z,16.90
2022-11-05T13:46:04.423Z,16.00
2022-11-05T13:48:52.652Z,13.10
2022-11-05T13:51:58.173Z,12.70
2022-11-05T13:55:26.312Z,11.70
2022-11-05T13:58:26.065Z,9.20
2022-11-05T14:01:10.099Z,7.00
2022-11-05T14:03:44.710Z,10.40
2022-11-05T14:06:12.587Z,13.60
2022-11-05T14:08:46.258Z,11.20
2022-11-05T14:11:28.411Z,9.00
2022-11-05T14:14:01.525Z,11.10
2022-11-05T14:16:48.545Z,8.90
2022-11-05T14:19:18.907Z,8.80
2022-11-05T14:21:58.162Z,7.70
2022-11-05T14:24:43.123Z,10.80
2022-11-05T14:27:13.983Z,10.90
2022-11-05T14:29:47.845Z,8.70
2022-11-05T14:32:21.581Z,6.30
2022-11-05T14:35:04.063Z,9.40
2022-11-05T14:37:39.508Z,12.70
2022-11-05T14:40:44.687Z,12.90
2022-11-05T14:43:23.624Z,12.50
2022-11-05T14:46:01.898Z,9.40
2022-11-05T14:48:50.284Z,10.60
2022-11-05T14:51:32.548Z,12.60
2022-11-05T14:54:06.663Z,24.00
2022-11-05T14:56:54.954Z,22.80
2022-11-05T14:59:23.945Z,21.80
2022-11-05T15:01:58.039Z,15.40
2022-11-05T15:04:31.813Z,16.90
2022-11-05T15:07:02.287Z,12.70
2022-11-05T15:09:43.174Z,14.50
2022-11-05T15:12:23.737Z,12.20
2022-11-05T15:14:59.307Z,12.30
2022-11-05T15:17:40.252Z,12.90
2022-11-05T15:20:09.084Z,10.20
2022-11-05T15:22:43.708Z,15.00
2022-11-05T15:25:27.013Z,15.80
2022-11-05T15:28:06.082Z,16.20
2022-11-05T15:30:34.187Z,8.60
2022-11-05T15:33:20.337Z,12.20
2022-11-05T15:35:48.125Z,10.30
2022-11-05T15:38:29.104Z,12.80
2022-11-05T15:41:18.889Z,8.30
2022-11-05T15:43:49.013Z,11.70
2022-11-05T15:46:22.028Z,9.90
2022-11-05T15:48:55.914Z,14.00
2022-11-05T15:51:26.272Z,8.50
2022-11-05T15:56:53.125Z,10.80
2022-11-05T15:59:24.470Z,10.10
2022-11-05T16:04:50.169Z,10.60
2022-11-05T16:07:19.005Z,11.40
2022-11-05T16:10:02.114Z,7.00
2022-11-05T16:12:36.785Z,11.40
2022-11-05T16:15:10.655Z,15.00
2022-11-05T16:17:59.550Z,7.50
2022-11-05T16:20:38.400Z,9.30
2022-11-05T16:23:23.260Z,9.90
2022-11-05T16:25:51.504Z,11.10
2022-11-05T16:28:24.194Z,11.80
2022-11-05T16:30:58.472Z,10.30
2022-11-05T16:33:35.257Z,10.30
2022-11-05T16:36:03.462Z,14.30
2022-11-05T16:38:31.189Z,11.60
2022-11-05T16:41:00.363Z,11.60
2022-11-05T16:43:28.122Z,9.10
2022-11-05T16:46:00.144Z,8.50
2022-11-05T16:48:28.392Z,12.70
2022-11-05T16:50:56.261Z,8.30
2022-11-05T16:53:24.037Z,8.60
2022-11-05T16:55:51.924Z,7.00
2022-11-05T16:58:24.466Z,10.50
2022-11-05T17:01:08.299Z,7.10
2022-11-05T17:03:36.139Z,8.00
2022-11-05T17:06:04.341Z,9.00
2022-11-05T17:08:32.139Z,9.40
2022-11-05T17:10:59.986Z,8.70
2022-11-05T17:13:27.796Z,8.10
2022-11-05T17:15:55.542Z,9.80
2022-11-05T17:18:23.727Z,7.50
2022-11-05T17:20:55.158Z,10.90
2022-11-05T17:23:26.774Z,8.50
2022-11-05T17:26:06.224Z,7.80
2022-11-05T17:28:34.909Z,10.50
2022-11-05T17:31:06.893Z,8.60
2022-11-05T17:33:35.317Z,6.50
2022-11-05T17:36:09.308Z,8.10
2022-11-05T17:38:37.889Z,6.60
2022-11-05T17:41:15.083Z,8.70
2022-11-05T17:43:43.074Z,8.10
2022-11-05T17:46:15.561Z,9.90
2022-11-05T17:48:44.683Z,11.40
2022-11-05T17:51:16.694Z,10.00
2022-11-05T17:53:46.206Z,11.60
2022-11-05T17:56:28.946Z,7.90
2022-11-05T17:59:03.297Z,5.70
2022-11-05T18:01:34.678Z,7.60
2022-11-05T18:04:08.603Z,7.30
2022-11-05T18:06:39.988Z,9.70
2022-11-05T18:09:10.338Z,8.40
2022-11-05T18:11:39.302Z,8.80
2022-11-05T18:14:08.296Z,10.10
2022-11-05T18:16:36.562Z,12.80
2022-11-05T18:19:05.524Z,13.20
2022-11-05T18:21:33.326Z,12.50
2022-11-05T18:24:08.354Z,12.00
2022-11-05T18:26:36.282Z,10.10
2022-11-05T18:29:06.102Z,14.30
2022-11-05T18:31:33.849Z,13.80
2022-11-05T18:34:01.893Z,22.80
2022-11-05T18:36:32.712Z,16.40
2022-11-05T18:39:03.318Z,16.80
2022-11-05T18:41:31.593Z,17.60
2022-11-05T18:44:01.205Z,18.70
2022-11-05T18:46:56.569Z,13.70
2022-11-05T18:49:19.078Z,16.00
2022-11-05T18:51:46.941Z,14.50
2022-11-05T18:54:14.766Z,14.50
2022-11-05T18:56:45.629Z,13.90
2022-11-05T19:02:08.776Z,15.30
2022-11-05T19:04:37.701Z,26.30
2022-11-05T19:07:07.553Z,16.60
2022-11-05T19:09:37.615Z,19.20
2022-11-05T19:12:07.406Z,19.00
2022-11-05T19:14:35.872Z,22.20
2022-11-05T19:17:04.482Z,23.90
2022-11-05T19:19:32.330Z,23.00
2022-11-05T19:22:00.140Z,23.00
2022-11-05T19:24:28.088Z,22.50
2022-11-05T19:26:56.237Z,19.00
2022-11-05T19:29:24.217Z,26.30
2022-11-05T19:31:52.101Z,22.50
2022-11-05T19:34:20.612Z,20.10
2022-11-05T19:36:48.542Z,19.90
2022-11-05T19:39:16.532Z,21.00
2022-11-05T19:41:44.323Z,22.90
2022-11-05T19:44:12.254Z,20.20
2022-11-05T19:46:39.998Z,23.50
2022-11-05T19:49:07.790Z,25.00
2022-11-05T19:51:35.895Z,25.50
2022-11-05T19:54:04.790Z,27.70
2022-11-05T19:56:35.265Z,25.60
2022-11-05T19:59:03.805Z,26.60
2022-11-05T20:01:33.374Z,28.50
2022-11-05T20:04:04.854Z,31.20
2022-11-05T20:09:22.012Z,29.40
2022-11-05T20:11:56.607Z,24.90
2022-11-05T20:14:27.789Z,27.70
2022-11-05T20:16:55.774Z,27.80
2022-11-05T20:19:23.634Z,24.60
2022-11-05T20:21:51.989Z,25.20
2022-11-05T20:24:25.362Z,29.30
2022-11-05T20:26:55.660Z,24.90
2022-11-05T20:29:30.517Z,30.70
2022-11-05T20:32:04.344Z,30.30
2022-11-05T20:34:35.010Z,32.00
2022-11-05T20:37:02.807Z,29.10
2022-11-05T20:39:30.820Z,27.10
2022-11-05T20:42:00.459Z,22.70
2022-11-05T20:44:28.807Z,28.60
2022-11-05T20:46:56.635Z,25.80
2022-11-05T20:49:25.800Z,26.20
2022-11-05T20:51:54.390Z,28.90
2022-11-05T20:54:24.264Z,29.60
2022-11-05T20:56:52.259Z,25.30
2022-11-05T20:59:20.129Z,30.80
2022-11-05T21:01:48.248Z,30.90
2022-11-05T21:04:16.243Z,33.40
2022-11-05T21:06:44.066Z,31.70
2022-11-05T21:09:12.682Z,28.80
2022-11-05T21:11:59.340Z,31.50
2022-11-05T21:14:27.129Z,29.60
2022-11-05T21:16:55.062Z,28.20
2022-11-05T21:19:24.080Z,28.30
2022-11-05T21:21:52.108Z,28.20
2022-11-05T21:24:19.945Z,30.10
2022-11-05T21:26:49.956Z,24.00
2022-11-05T21:29:18.496Z,21.40
2022-11-05T21:31:47.145Z,23.80
2022-11-05T21:34:14.960Z,26.60
2022-11-05T21:36:43.243Z,21.50
2022-11-05T21:39:13.679Z,21.90
2022-11-05T21:41:42.757Z,22.60
2022-11-05T21:44:10.710Z,20.70
2022-11-05T21:46:38.527Z,17.40
2022-11-05T21:49:06.510Z,17.80
2022-11-05T21:52:12.685Z,19.60
2022-11-05T21:54:59.382Z,14.20
2022-11-05T21:57:45.955Z,15.90
2022-11-05T22:00:14.226Z,15.10
2022-11-05T22:02:42.093Z,14.90
2022-11-05T22:05:10.147Z,15.50
2022-11-05T22:07:39.211Z,21.80
2022-11-05T22:10:15.920Z,18.40
2022-11-05T22:12:45.312Z,19.90
2022-11-05T22:15:13.725Z,20.60
2022-11-05T22:17:46.646Z,12.20
2022-11-05T22:20:16.596Z,19.80
2022-11-05T22:22:45.231Z,12.70
2022-11-05T22:25:14.394Z,13.30
2022-11-05T22:27:43.913Z,17.30
2022-11-05T22:30:13.908Z,14.90
2022-11-05T22:32:41.864Z,15.10
2022-11-05T22:35:10.570Z,18.70
2022-11-05T22:37:38.633Z,17.80
2022-11-05T22:40:07.127Z,21.60
2022-11-05T22:42:35.210Z,15.30
2022-11-05T22:45:03.434Z,15.70
2022-11-05T22:47:31.239Z,17.10
2022-11-05T22:49:59.258Z,18.90
2022-11-05T22:52:27.490Z,23.00
2022-11-05T22:54:55.300Z,24.20
2022-11-05T22:57:23.158Z,26.20
2022-11-05T22:59:50.985Z,25.00
2022-11-05T23:02:18.841Z,28.30
2022-11-05T23:04:46.648Z,30.90
2022-11-05T23:07:46.713Z,25.70
2022-11-05T23:10:33.368Z,21.80
2022-11-05T23:13:01.078Z,24.20
2022-11-05T23:15:47.650Z,24.50
2022-11-05T23:18:44.572Z,23.40
2022-11-05T23:21:31.045Z,24.40
2022-11-05T23:24:05.092Z,22.10
2022-11-05T23:26:50.677Z,27.40
2022-11-05T23:29:22.608Z,29.00
2022-11-05T23:32:10.471Z,26.30
2022-11-05T23:34:38.995Z,25.60
2022-11-05T23:37:26.218Z,30.60
2022-11-05T23:39:54.411Z,24.50
2022-11-05T23:42:41.310Z,22.00
2022-11-05T23:45:28.496Z,21.80
2022-11-05T23:48:15.065Z,17.80
2022-11-05T23:50:56.844Z,22.60
2022-11-05T23:53:25.445Z,23.10
2022-11-05T23:55:53.433Z,20.00
2022-11-05T23:58:21.211Z,22.60
